Time,TemperatureF,DewpointF,PressureIn,WindDirection,WindDirectionDegrees,WindSpeedMPH,WindSpeedGustMPH,Humidity,HourlyPrecipIn,Conditions,Clouds,dailyrainin,SoftwareType,DateUTC
2013-05-24 00:00:00,42.4,38.5,29.89,NNE,22,2.2,4.3,86,0.00,,,0.06,WUHU21623XXSP,2013-05-23 22:00:00,
2013-05-24 00:05:00,42.4,38.5,29.89,NNE,22,1.6,4.3,86,0.00,,,0.00,WUHU21623XXSP,2013-05-23 22:05:00,
2013-05-24 00:10:00,42.4,38.5,29.89,NNE,22,1.3,2.9,86,0.00,,,0.00,WUHU21623XXSP,2013-05-23 22:10:00,
2013-05-24 00:15:00,42.4,38.5,29.89,NNE,22,1.6,2.7,86,0.00,,,0.00,WUHU21623XXSP,2013-05-23 22:15:00,
2013-05-24 00:20:00,42.1,38.2,29.89,NNE,22,2.5,2.7,86,0.00,,,0.00,WUHU21623XXSP,2013-05-23 22:20:00,
2013-05-24 00:25:00,42.1,38.2,29.88,NNE,22,2.0,2.9,86,0.00,,,0.00,WUHU21623XXSP,2013-05-23 22:25:00,
2013-05-24 00:30:00,41.9,38.0,29.88,NNE,22,3.8,3.8,86,0.00,,,0.00,WUHU21623XXSP,2013-05-23 22:30:00,
2013-05-24 00:35:00,41.5,37.6,29.88,NNE,22,1.1,3.8,86,0.00,,,0.00,WUHU21623XXSP,2013-05-23 22:35:00,
2013-05-24 00:40:00,41.5,37.9,29.88,NNE,22,1.3,1.6,87,0.00,,,0.00,WUHU21623XXSP,2013-05-23 22:40:00,
2013-05-24 00:45:00,41.2,37.6,29.89,NNE,22,1.3,1.6,87,0.00,,,0.00,WUHU21623XXSP,2013-05-23 22:45:00,
2013-05-24 00:50:00,41.2,37.6,29.89,NNE,22,0.0,1.6,87,0.00,,,0.00,WUHU21623XXSP,2013-05-23 22:50:00,
2013-05-24 00:55:00,40.8,37.2,29.88,NNE,22,0.0,0.9,87,0.00,,,0.00,WUHU21623XXSP,2013-05-23 22:55:00,
2013-05-24 01:00:00,41.0,37.4,29.89,NNE,22,0.0,0.9,87,0.00,,,0.00,WUHU21623XXSP,2013-05-23 23:00:00,
2013-05-24 01:05:00,41.0,37.4,29.88,NNE,22,0.0,0.0,87,0.00,,,0.00,WUHU21623XXSP,2013-05-23 23:05:00,
2013-05-24 01:10:00,40.8,37.2,29.89,NNE,22,0.0,0.0,87,0.00,,,0.00,WUHU21623XXSP,2013-05-23 23:10:00,
2013-05-24 01:15:00,40.6,37.0,29.88,NNE,22,0.9,2.0,87,0.00,,,0.00,WUHU21623XXSP,2013-05-23 23:15:00,
2013-05-24 01:20:00,40.3,37.0,29.88,NNE,22,0.0,2.0,88,0.00,,,0.00,WUHU21623XXSP,2013-05-23 23:20:00,
2013-05-24 01:25:00,39.9,36.6,29.88,NNE,22,0.0,0.0,88,0.00,,,0.00,WUHU21623XXSP,2013-05-23 23:25:00,
2013-05-24 01:30:00,39.7,36.4,29.88,South,180,0.0,1.8,88,0.00,,,0.00,WUHU21623XXSP,2013-05-23 23:30:00,
2013-05-24 01:35:00,39.6,36.3,29.88,South,180,0.0,1.8,88,0.00,,,0.00,WUHU21623XXSP,2013-05-23 23:35:00,
2013-05-24 01:40:00,39.6,36.3,29.88,South,180,0.0,0.0,88,0.00,,,0.00,WUHU21623XXSP,2013-05-23 23:40:00,
2013-05-24 01:45:00,39.6,36.3,29.88,South,180,0.0,1.3,88,0.00,,,0.00,WUHU21623XXSP,2013-05-23 23:45:00,
2013-05-24 01:50:00,39.4,36.1,29.88,South,180,0.0,1.3,88,0.00,,,0.00,WUHU21623XXSP,2013-05-23 23:50:00,
2013-05-24 01:55:00,39.4,36.1,29.88,NNE,22,0.9,0.9,88,0.00,,,0.00,WUHU21623XXSP,2013-05-23 23:55:00,
2013-05-24 02:00:00,39.4,36.1,29.88,South,180,0.0,0.9,88,0.00,,,0.00,WUHU21623XXSP,2013-05-24 00:00:00,
2013-05-24 02:05:00,39.2,35.9,29.88,SSE,157,0.0,0.0,88,0.00,,,0.00,WUHU21623XXSP,2013-05-24 00:05:00,
2013-05-24 02:10:00,39.0,35.7,29.88,South,180,0.0,0.0,88,0.00,,,0.00,WUHU21623XXSP,2013-05-24 00:10:00,
2013-05-24 02:15:00,38.8,35.6,29.88,South,180,0.0,0.0,88,0.00,,,0.00,WUHU21623XXSP,2013-05-24 00:15:00,
2013-05-24 02:20:00,38.8,35.6,29.88,South,180,0.0,0.0,88,0.00,,,0.00,WUHU21623XXSP,2013-05-24 00:20:00,
2013-05-24 02:25:00,38.3,35.0,29.88,SSE,157,0.0,1.3,88,0.00,,,0.00,WUHU21623XXSP,2013-05-24 00:25:00,
2013-05-24 02:30:00,38.5,35.5,29.88,South,180,1.3,1.3,89,0.00,,,0.00,WUHU21623XXSP,2013-05-24 00:30:00,
2013-05-24 02:35:00,39.0,35.7,29.88,South,180,0.0,2.0,88,0.00,,,0.00,WUHU21623XXSP,2013-05-24 00:35:00,
2013-05-24 02:40:00,39.0,35.7,29.88,South,180,0.0,2.0,88,0.00,,,0.00,WUHU21623XXSP,2013-05-24 00:40:00,
2013-05-24 02:45:00,39.0,36.0,29.87,South,180,0.0,1.6,89,0.00,,,0.00,WUHU21623XXSP,2013-05-24 00:45:00,
2013-05-24 02:50:00,39.0,36.0,29.87,South,180,0.0,1.6,89,0.00,,,0.00,WUHU21623XXSP,2013-05-24 00:50:00,
2013-05-24 02:55:00,38.8,35.9,29.87,South,180,0.0,0.0,89,0.00,,,0.00,WUHU21623XXSP,2013-05-24 00:55:00,
2013-05-24 03:00:00,38.5,35.5,29.87,South,180,0.0,0.0,89,0.00,,,0.00,WUHU21623XXSP,2013-05-24 01:00:00,
2013-05-24 03:05:00,38.5,35.5,29.87,South,180,0.0,0.0,89,0.00,,,0.00,WUHU21623XXSP,2013-05-24 01:05:00,
2013-05-24 03:10:00,38.5,35.5,29.86,South,180,0.0,0.0,89,0.00,,,0.00,WUHU21623XXSP,2013-05-24 01:10:00,
2013-05-24 03:15:00,37.9,35.0,29.87,SSE,157,0.0,0.0,89,0.00,,,0.00,WUHU21623XXSP,2013-05-24 01:15:00,
2013-05-24 03:20:00,37.8,34.8,29.87,NNE,22,0.0,0.0,89,0.00,,,0.00,WUHU21623XXSP,2013-05-24 01:20:00,
2013-05-24 03:25:00,37.4,34.4,29.86,South,180,0.0,0.0,89,0.00,,,0.00,WUHU21623XXSP,2013-05-24 01:25:00,
2013-05-24 03:30:00,37.2,34.2,29.86,South,180,0.0,0.0,89,0.00,,,0.00,WUHU21623XXSP,2013-05-24 01:30:00,
2013-05-24 03:35:00,37.2,34.2,29.86,SSE,157,0.0,0.0,89,0.00,,,0.00,WUHU21623XXSP,2013-05-24 01:35:00,
2013-05-24 03:40:00,37.0,34.1,29.86,SSE,157,0.0,0.0,89,0.00,,,0.00,WUHU21623XXSP,2013-05-24 01:40:00,
2013-05-24 03:45:00,37.2,34.2,29.86,SSE,157,0.0,0.0,89,0.00,,,0.00,WUHU21623XXSP,2013-05-24 01:45:00,
2013-05-24 03:50:00,37.0,34.1,29.86,South,180,0.0,0.0,89,0.00,,,0.00,WUHU21623XXSP,2013-05-24 01:50:00,
2013-05-24 03:55:00,37.0,34.1,29.86,NNE,22,0.0,0.0,89,0.00,,,0.00,WUHU21623XXSP,2013-05-24 01:55:00,
2013-05-24 04:00:00,36.9,33.9,29.86,NNE,22,0.0,0.0,89,0.00,,,0.00,WUHU21623XXSP,2013-05-24 02:00:00,
2013-05-24 04:05:00,36.7,33.7,29.85,NNE,22,0.0,0.0,89,0.00,,,0.00,WUHU21623XXSP,2013-05-24 02:05:00,
2013-05-24 04:10:00,36.7,34.0,29.86,NNE,22,0.0,0.0,90,0.00,,,0.00,WUHU21623XXSP,2013-05-24 02:10:00,
2013-05-24 04:15:00,36.9,34.2,29.85,NNE,22,0.0,0.0,90,0.00,,,0.00,WUHU21623XXSP,2013-05-24 02:15:00,
2013-05-24 04:20:00,36.7,33.7,29.85,South,180,0.0,0.0,89,0.00,,,0.00,WUHU21623XXSP,2013-05-24 02:20:00,
2013-05-24 04:25:00,36.7,34.0,29.85,South,180,0.0,0.0,90,0.00,,,0.00,WUHU21623XXSP,2013-05-24 02:25:00,
2013-05-24 04:30:00,36.5,33.5,29.85,South,180,0.0,0.0,89,0.00,,,0.00,WUHU21623XXSP,2013-05-24 02:30:00,
2013-05-24 04:35:00,36.7,34.0,29.85,South,180,0.0,0.0,90,0.00,,,0.00,WUHU21623XXSP,2013-05-24 02:35:00,
2013-05-24 04:40:00,36.7,34.0,29.85,South,180,0.0,0.0,90,0.00,,,0.00,WUHU21623XXSP,2013-05-24 02:40:00,
2013-05-24 04:45:00,36.7,34.0,29.85,South,180,0.0,0.0,90,0.00,,,0.00,WUHU21623XXSP,2013-05-24 02:45:00,
2013-05-24 04:50:00,36.7,34.0,29.86,South,180,1.8,1.8,90,0.00,,,0.00,WUHU21623XXSP,2013-05-24 02:50:00,
2013-05-24 04:55:00,37.0,34.3,29.85,South,180,0.0,1.8,90,0.00,,,0.00,WUHU21623XXSP,2013-05-24 02:55:00,
2013-05-24 05:00:00,37.2,34.5,29.85,SSE,157,1.1,1.1,90,0.00,,,0.00,WUHU21623XXSP,2013-05-24 03:00:00,
2013-05-24 05:05:00,37.2,34.5,29.85,SSE,157,0.0,1.8,90,0.00,,,0.00,WUHU21623XXSP,2013-05-24 03:05:00,
2013-05-24 05:10:00,37.2,34.5,29.85,NNE,22,0.0,1.8,90,0.00,,,0.00,WUHU21623XXSP,2013-05-24 03:10:00,
2013-05-24 05:15:00,37.2,34.5,29.85,South,180,0.0,0.0,90,0.00,,,0.00,WUHU21623XXSP,2013-05-24 03:15:00,
2013-05-24 05:20:00,37.2,34.5,29.85,South,180,0.0,0.0,90,0.00,,,0.00,WUHU21623XXSP,2013-05-24 03:20:00,
2013-05-24 05:25:00,37.4,34.7,29.85,SSE,157,0.7,0.7,90,0.00,,,0.00,WUHU21623XXSP,2013-05-24 03:25:00,
2013-05-24 05:30:00,37.6,34.9,29.84,South,180,1.1,1.1,90,0.00,,,0.00,WUHU21623XXSP,2013-05-24 03:30:00,
2013-05-24 05:35:00,37.6,34.9,29.84,SSE,157,0.0,1.8,90,0.00,,,0.00,WUHU21623XXSP,2013-05-24 03:35:00,
2013-05-24 05:39:00,37.4,34.7,29.85,SSE,157,1.3,1.8,90,0.00,,,0.00,WUHU21623XXSP,2013-05-24 03:39:00,
2013-05-24 05:44:00,37.6,35.1,29.85,SE,135,0.0,1.3,91,0.00,,,0.00,WUHU21623XXSP,2013-05-24 03:44:00,
2013-05-24 05:49:00,37.6,35.1,29.85,SSE,157,0.0,0.0,91,0.00,,,0.00,WUHU21623XXSP,2013-05-24 03:49:00,
2013-05-24 05:54:00,37.9,35.5,29.85,SSE,157,0.0,0.7,91,0.00,,,0.00,WUHU21623XXSP,2013-05-24 03:54:00,
2013-05-24 05:59:00,38.1,35.7,29.84,SSE,157,2.7,2.7,91,0.00,,,0.00,WUHU21623XXSP,2013-05-24 03:59:00,
2013-05-24 06:01:00,38.3,35.9,29.84,SSE,157,0.0,2.7,91,0.00,,,0.00,WUHU21623XXSP,2013-05-24 04:01:00,
2013-05-24 06:02:00,38.3,35.9,29.85,SSE,157,2.7,2.7,91,0.00,,,0.00,WUHU21623XXSP,2013-05-24 04:02:00,
2013-05-24 06:07:00,38.8,36.4,29.85,SSE,157,0.0,2.7,91,0.00,,,0.00,WUHU21623XXSP,2013-05-24 04:07:00,
2013-05-24 06:12:00,39.0,36.6,29.84,SSE,157,0.0,1.6,91,0.00,,,0.00,WUHU21623XXSP,2013-05-24 04:12:00,
2013-05-24 06:17:00,38.8,36.4,29.84,South,180,0.0,1.6,91,0.00,,,0.00,WUHU21623XXSP,2013-05-24 04:17:00,
2013-05-24 06:22:00,38.5,36.1,29.85,SSE,157,0.0,0.7,90,0.00,,,0.00,WUHU21623XXSP,2013-05-24 04:22:00,
2013-05-24 06:27:00,38.3,35.9,29.85,SSE,157,1.6,1.6,91,0.00,,,0.00,WUHU21623XXSP,2013-05-24 04:27:00,
2013-05-24 06:31:00,38.1,35.7,29.85,SSE,157,0.9,1.6,91,0.00,,,0.00,WUHU21623XXSP,2013-05-24 04:31:00,
2013-05-24 06:36:00,38.8,36.4,29.85,South,180,0.0,0.9,91,0.00,,,0.00,WUHU21623XXSP,2013-05-24 04:36:00,
2013-05-24 06:41:00,38.8,36.4,29.85,South,180,0.0,0.0,91,0.00,,,0.00,WUHU21623XXSP,2013-05-24 04:41:00,
2013-05-24 06:46:00,38.8,36.4,29.85,NNE,22,0.0,1.3,91,0.00,,,0.00,WUHU21623XXSP,2013-05-24 04:46:00,
2013-05-24 06:51:00,39.0,36.6,29.85,NNE,22,0.0,1.3,91,0.00,,,0.00,WUHU21623XXSP,2013-05-24 04:51:00,
2013-05-24 06:56:00,39.4,37.0,29.85,NNE,22,0.0,1.3,91,0.00,,,0.00,WUHU21623XXSP,2013-05-24 04:56:00,
2013-05-24 07:01:00,39.7,37.3,29.85,NNE,22,0.0,1.8,91,0.00,,,0.00,WUHU21623XXSP,2013-05-24 05:01:00,
2013-05-24 07:06:00,40.5,38.0,29.85,NNE,22,0.0,2.0,91,0.00,,,0.00,WUHU21623XXSP,2013-05-24 05:06:00,
2013-05-24 07:11:00,40.8,38.4,29.84,NNE,22,0.0,2.0,91,0.00,,,0.00,WUHU21623XXSP,2013-05-24 05:11:00,
2013-05-24 07:16:00,40.8,38.4,29.84,NNE,22,0.0,1.8,91,0.00,,,0.00,WUHU21623XXSP,2013-05-24 05:16:00,
2013-05-24 07:21:00,40.8,38.4,29.84,NNE,22,0.0,1.6,91,0.00,,,0.00,WUHU21623XXSP,2013-05-24 05:21:00,
2013-05-24 07:26:00,40.8,38.4,29.85,NNE,22,0.0,0.9,91,0.00,,,0.00,WUHU21623XXSP,2013-05-24 05:26:00,
2013-05-24 07:31:00,40.8,38.4,29.85,NNE,22,0.0,0.0,91,0.00,,,0.00,WUHU21623XXSP,2013-05-24 05:31:00,
2013-05-24 07:36:00,40.8,38.4,29.84,NNE,22,1.3,1.3,91,0.00,,,0.00,WUHU21623XXSP,2013-05-24 05:36:00,
2013-05-24 07:41:00,40.8,38.4,29.84,NNE,22,0.0,1.3,91,0.00,,,0.00,WUHU21623XXSP,2013-05-24 05:41:00,
2013-05-24 07:46:00,41.2,39.0,29.84,NNE,22,2.0,3.8,92,0.00,,,0.00,WUHU21623XXSP,2013-05-24 05:46:00,
2013-05-24 07:51:00,41.4,38.9,29.84,NNE,22,1.3,3.8,91,0.00,,,0.00,WUHU21623XXSP,2013-05-24 05:51:00,
2013-05-24 07:56:00,41.5,39.4,29.84,NNE,22,2.7,2.7,92,0.00,,,0.00,WUHU21623XXSP,2013-05-24 05:56:00,
2013-05-24 08:01:00,41.5,39.1,29.84,NNE,22,0.0,2.7,91,0.00,,,0.00,WUHU21623XXSP,2013-05-24 06:01:00,
2013-05-24 08:06:00,41.7,39.3,29.84,NNE,22,2.2,2.9,91,0.00,,,0.00,WUHU21623XXSP,2013-05-24 06:06:00,
2013-05-24 08:11:00,42.1,39.9,29.84,NNE,22,0.0,4.5,92,0.00,,,0.00,WUHU21623XXSP,2013-05-24 06:11:00,
2013-05-24 08:16:00,42.1,39.6,29.84,NNE,22,0.0,4.5,91,0.00,,,0.00,WUHU21623XXSP,2013-05-24 06:16:00,
2013-05-24 08:21:00,42.6,40.2,29.84,NNE,22,5.6,5.6,91,0.00,,,0.00,WUHU21623XXSP,2013-05-24 06:21:00,
2013-05-24 08:26:00,42.6,40.2,29.83,NNE,22,3.1,5.6,91,0.00,,,0.00,WUHU21623XXSP,2013-05-24 06:26:00,
2013-05-24 08:31:00,43.2,40.7,29.83,NNE,22,0.0,3.6,91,0.00,,,0.00,WUHU21623XXSP,2013-05-24 06:31:00,
2013-05-24 08:36:00,43.3,40.9,29.83,NNE,22,0.0,3.6,91,0.00,,,0.00,WUHU21623XXSP,2013-05-24 06:36:00,
2013-05-24 08:41:00,43.5,41.4,29.83,NNE,22,0.9,2.2,92,0.00,,,0.00,WUHU21623XXSP,2013-05-24 06:41:00,
2013-05-24 08:46:00,43.9,41.7,29.83,NNE,22,0.0,3.4,92,0.00,,,0.00,WUHU21623XXSP,2013-05-24 06:46:00,
2013-05-24 08:51:00,44.8,42.6,29.83,NNE,22,2.5,3.8,92,0.00,,,0.00,WUHU21623XXSP,2013-05-24 06:51:00,
2013-05-24 08:56:00,44.4,42.0,29.83,NNE,22,2.2,3.8,91,0.00,,,0.00,WUHU21623XXSP,2013-05-24 06:56:00,
2013-05-24 09:01:00,45.0,42.5,29.83,NNE,22,3.4,3.8,91,0.00,,,0.00,WUHU21623XXSP,2013-05-24 07:01:00,
2013-05-24 09:06:00,45.3,42.9,29.83,NNE,22,3.6,4.7,91,0.00,,,0.00,WUHU21623XXSP,2013-05-24 07:06:00,
2013-05-24 09:11:00,45.7,43.3,29.83,NNE,22,2.9,4.7,91,0.00,,,0.00,WUHU21623XXSP,2013-05-24 07:11:00,
2013-05-24 09:16:00,46.2,43.8,29.83,NNE,22,5.4,5.4,91,0.00,,,0.00,WUHU21623XXSP,2013-05-24 07:16:00,
2013-05-24 09:21:00,46.6,43.9,29.83,NNE,22,1.6,5.4,90,0.00,,,0.00,WUHU21623XXSP,2013-05-24 07:21:00,
2013-05-24 09:26:00,46.9,44.2,29.83,NNE,22,0.0,3.8,90,0.00,,,0.00,WUHU21623XXSP,2013-05-24 07:26:00,
2013-05-24 09:31:00,47.7,44.6,29.83,NNE,22,2.9,4.3,89,0.00,,,0.00,WUHU21623XXSP,2013-05-24 07:31:00,
2013-05-24 09:36:00,48.2,44.9,29.83,NNE,22,3.4,5.1,88,0.00,,,0.00,WUHU21623XXSP,2013-05-24 07:36:00,
2013-05-24 09:41:00,47.5,44.2,29.83,NNE,22,3.1,5.1,87,0.00,,,0.00,WUHU21623XXSP,2013-05-24 07:41:00,
2013-05-24 09:46:00,47.7,43.7,29.83,NNE,22,5.8,6.0,86,0.00,,,0.00,WUHU21623XXSP,2013-05-24 07:46:00,
2013-05-24 09:51:00,47.8,43.5,29.84,NNE,22,0.0,6.0,85,0.00,,,0.00,WUHU21623XXSP,2013-05-24 07:51:00,
2013-05-24 09:56:00,48.4,44.0,29.83,NNE,22,5.1,6.0,85,0.00,,,0.00,WUHU21623XXSP,2013-05-24 07:56:00,
2013-05-24 10:01:00,48.4,43.7,29.83,NNE,22,3.1,5.1,84,0.00,,,0.00,WUHU21623XXSP,2013-05-24 08:01:00,
2013-05-24 10:06:00,48.6,43.6,29.83,NNE,22,3.1,3.6,83,0.00,,,0.00,WUHU21623XXSP,2013-05-24 08:06:00,
2013-05-24 10:11:00,48.2,42.9,29.83,NNE,22,3.6,8.1,82,0.00,,,0.00,WUHU21623XXSP,2013-05-24 08:11:00,
2013-05-24 10:16:00,48.6,42.9,29.83,NNE,22,2.7,8.1,81,0.00,,,0.00,WUHU21623XXSP,2013-05-24 08:16:00,
2013-05-24 10:21:00,48.6,42.9,29.83,NNE,22,0.0,8.3,81,0.00,,,0.00,WUHU21623XXSP,2013-05-24 08:21:00,
2013-05-24 10:26:00,48.4,42.7,29.83,NNE,22,6.7,8.3,81,0.00,,,0.00,WUHU21623XXSP,2013-05-24 08:26:00,
2013-05-24 10:31:00,47.7,41.8,29.83,NNE,22,5.8,7.8,80,0.00,,,0.00,WUHU21623XXSP,2013-05-24 08:31:00,
2013-05-24 10:36:00,47.5,41.6,29.83,NNE,22,6.9,6.9,80,0.00,,,0.00,WUHU21623XXSP,2013-05-24 08:36:00,
2013-05-24 10:41:00,47.7,41.8,29.83,NNE,22,1.3,6.9,80,0.00,,,0.00,WUHU21623XXSP,2013-05-24 08:41:00,
2013-05-24 10:46:00,48.0,42.1,29.83,NNE,22,0.9,5.1,80,0.00,,,0.00,WUHU21623XXSP,2013-05-24 08:46:00,
2013-05-24 10:51:00,47.5,41.6,29.83,NNE,22,4.9,6.3,80,0.00,,,0.00,WUHU21623XXSP,2013-05-24 08:51:00,
2013-05-24 10:56:00,46.9,41.1,29.83,NNE,22,2.5,6.3,80,0.00,,,0.00,WUHU21623XXSP,2013-05-24 08:56:00,
2013-05-24 11:01:00,46.9,41.4,29.83,NNE,22,2.9,4.0,81,0.00,,,0.00,WUHU21623XXSP,2013-05-24 09:01:00,
2013-05-24 11:06:00,47.3,42.1,29.82,NNE,22,0.0,2.9,82,0.00,,,0.00,WUHU21623XXSP,2013-05-24 09:06:00,
2013-05-24 11:11:00,48.0,42.7,29.82,NNE,22,0.0,2.5,82,0.00,,,0.00,WUHU21623XXSP,2013-05-24 09:11:00,
2013-05-24 11:16:00,48.2,42.6,29.82,NNE,22,0.9,4.3,81,0.00,,,0.00,WUHU21623XXSP,2013-05-24 09:16:00,
2013-05-24 11:21:00,47.5,41.3,29.82,NNE,22,4.0,6.3,79,0.00,,,0.00,WUHU21623XXSP,2013-05-24 09:21:00,
2013-05-24 11:26:00,46.6,40.1,29.83,NNE,22,0.0,6.9,78,0.00,,,0.00,WUHU21623XXSP,2013-05-24 09:26:00,
2013-05-24 11:31:00,46.2,40.5,29.83,NNE,22,7.6,8.5,80,0.00,,,0.00,WUHU21623XXSP,2013-05-24 09:31:00,
2013-05-24 11:36:00,45.5,39.4,29.83,NNE,22,10.7,10.7,79,0.00,,,0.00,WUHU21623XXSP,2013-05-24 09:36:00,
2013-05-24 11:41:00,44.4,39.0,29.83,NNE,22,7.4,10.7,81,0.02,,,0.02,WUHU21623XXSP,2013-05-24 09:41:00,
2013-05-24 11:46:00,43.5,38.4,29.83,NNE,22,1.8,11.4,82,0.02,,,0.02,WUHU21623XXSP,2013-05-24 09:46:00,
2013-05-24 11:51:00,43.2,38.3,29.83,South,180,2.9,11.4,83,0.04,,,0.04,WUHU21623XXSP,2013-05-24 09:51:00,
2013-05-24 11:56:00,43.3,38.8,29.83,NNE,22,1.3,5.8,84,0.04,,,0.04,WUHU21623XXSP,2013-05-24 09:56:00,
2013-05-24 12:01:00,44.1,39.8,29.83,NNE,22,0.7,3.1,85,0.04,,,0.04,WUHU21623XXSP,2013-05-24 10:01:00,
2013-05-24 12:06:00,44.4,40.2,29.83,NNE,22,0.0,3.4,85,0.04,,,0.04,WUHU21623XXSP,2013-05-24 10:06:00,
2013-05-24 12:11:00,45.1,40.9,29.83,NNE,22,2.5,4.5,85,0.06,,,0.04,WUHU21623XXSP,2013-05-24 10:11:00,
2013-05-24 12:16:00,45.0,41.0,29.83,NNE,22,2.5,4.5,86,0.06,,,0.06,WUHU21623XXSP,2013-05-24 10:16:00,
2013-05-24 12:21:00,44.8,40.9,29.83,NNE,22,2.9,2.9,86,0.06,,,0.06,WUHU21623XXSP,2013-05-24 10:21:00,
2013-05-24 12:26:00,44.1,40.1,29.83,NNE,22,1.1,5.8,86,0.08,,,0.08,WUHU21623XXSP,2013-05-24 10:26:00,
2013-05-24 12:31:00,43.9,40.3,29.83,NNE,22,1.8,5.8,87,0.10,,,0.11,WUHU21623XXSP,2013-05-24 10:31:00,
2013-05-24 12:36:00,44.4,40.8,29.83,NNE,22,0.0,2.9,87,0.10,,,0.11,WUHU21623XXSP,2013-05-24 10:36:00,
2013-05-24 12:41:00,44.4,40.8,29.82,NNE,22,1.6,2.0,87,0.08,,,0.11,WUHU21623XXSP,2013-05-24 10:41:00,
2013-05-24 12:46:00,44.6,41.0,29.82,NNE,22,1.6,2.0,87,0.06,,,0.11,WUHU21623XXSP,2013-05-24 10:46:00,
2013-05-24 12:51:00,45.0,41.3,29.82,NNE,22,0.0,1.6,87,0.06,,,0.11,WUHU21623XXSP,2013-05-24 10:51:00,
2013-05-24 12:56:00,45.3,42.0,29.82,NNE,22,0.0,0.0,88,0.06,,,0.11,WUHU21623XXSP,2013-05-24 10:56:00,
2013-05-24 13:01:00,46.0,42.4,29.81,NNE,22,0.0,1.6,87,0.06,,,0.11,WUHU21623XXSP,2013-05-24 11:01:00,
2013-05-24 13:06:00,46.0,42.4,29.81,NNE,22,0.0,1.6,87,0.06,,,0.11,WUHU21623XXSP,2013-05-24 11:06:00,
2013-05-24 13:11:00,46.0,42.4,29.81,NNE,22,0.0,0.0,87,0.04,,,0.11,WUHU21623XXSP,2013-05-24 11:11:00,
2013-05-24 13:16:00,46.0,42.4,29.81,NNE,22,0.0,0.0,87,0.04,,,0.11,WUHU21623XXSP,2013-05-24 11:16:00,
2013-05-24 13:21:00,46.6,42.9,29.81,NNE,22,0.0,2.0,87,0.02,,,0.11,WUHU21623XXSP,2013-05-24 11:21:00,
2013-05-24 13:26:00,46.8,43.1,29.80,NNE,22,2.2,2.2,87,0.00,,,0.11,WUHU21623XXSP,2013-05-24 11:26:00,
2013-05-24 13:31:00,46.8,43.1,29.81,NNE,22,6.3,6.3,87,0.00,,,0.11,WUHU21623XXSP,2013-05-24 11:31:00,
2013-05-24 13:36:00,45.5,41.6,29.82,NNE,22,11.2,14.3,86,0.02,,,0.11,WUHU21623XXSP,2013-05-24 11:36:00,
2013-05-24 13:41:00,43.5,39.9,29.81,NNE,22,2.2,14.3,87,0.08,,,0.19,WUHU21623XXSP,2013-05-24 11:41:00,
2013-05-24 13:46:00,43.3,39.7,29.81,NNE,22,6.3,7.4,87,0.10,,,0.21,WUHU21623XXSP,2013-05-24 11:46:00,
2013-05-24 13:51:00,44.4,40.8,29.81,NNE,22,5.1,6.3,87,0.10,,,0.21,WUHU21623XXSP,2013-05-24 11:51:00,
2013-05-24 13:56:00,45.3,42.0,29.81,NNE,22,0.0,8.3,88,0.10,,,0.21,WUHU21623XXSP,2013-05-24 11:56:00,
2013-05-24 14:01:00,46.6,43.3,29.81,NNE,22,3.8,8.3,88,0.10,,,0.21,WUHU21623XXSP,2013-05-24 12:01:00,
2013-05-24 14:06:00,46.0,42.7,29.80,NNE,22,3.6,6.0,88,0.10,,,0.21,WUHU21623XXSP,2013-05-24 12:06:00,
2013-05-24 14:11:00,46.0,42.7,29.80,NNE,22,5.1,6.0,88,0.10,,,0.21,WUHU21623XXSP,2013-05-24 12:11:00,
2013-05-24 14:16:00,46.2,42.9,29.80,NNE,22,0.0,5.4,88,0.10,,,0.21,WUHU21623XXSP,2013-05-24 12:16:00,
2013-05-24 14:21:00,46.9,43.6,29.80,NNE,22,8.1,8.1,88,0.10,,,0.21,WUHU21623XXSP,2013-05-24 12:21:00,
2013-05-24 14:26:00,46.9,43.6,29.80,NNE,22,6.5,8.1,88,0.10,,,0.21,WUHU21623XXSP,2013-05-24 12:26:00,
2013-05-24 14:31:00,46.6,42.9,29.80,NNE,22,2.2,7.8,87,0.10,,,0.21,WUHU21623XXSP,2013-05-24 12:31:00,
2013-05-24 14:36:00,47.1,43.5,29.80,NNE,22,5.6,7.8,87,0.08,,,0.21,WUHU21623XXSP,2013-05-24 12:36:00,
2013-05-24 14:41:00,47.5,43.8,29.79,NNE,22,4.9,6.7,87,0.00,,,0.21,WUHU21623XXSP,2013-05-24 12:41:00,
2013-05-24 14:46:00,47.8,44.2,29.79,NNE,22,0.0,7.6,87,0.00,,,0.21,WUHU21623XXSP,2013-05-24 12:46:00,
2013-05-24 14:51:00,48.6,44.9,29.79,NNE,22,4.5,7.6,87,0.00,,,0.21,WUHU21623XXSP,2013-05-24 12:51:00,
2013-05-24 14:56:00,48.0,44.0,29.79,NNE,22,4.3,8.3,86,0.00,,,0.21,WUHU21623XXSP,2013-05-24 12:56:00,
2013-05-24 15:01:00,48.2,44.2,29.79,NNE,22,3.6,8.3,86,0.00,,,0.21,WUHU21623XXSP,2013-05-24 13:01:00,
2013-05-24 15:06:00,48.2,43.9,29.79,NNE,22,4.0,6.9,85,0.00,,,0.21,WUHU21623XXSP,2013-05-24 13:06:00,
2013-05-24 15:11:00,48.0,43.7,29.79,NNE,22,5.8,8.1,85,0.00,,,0.21,WUHU21623XXSP,2013-05-24 13:11:00,
2013-05-24 15:16:00,48.0,43.7,29.79,NNE,22,0.7,8.1,85,0.00,,,0.21,WUHU21623XXSP,2013-05-24 13:16:00,
2013-05-24 15:21:00,48.0,43.7,29.78,NNE,22,2.0,5.4,85,0.00,,,0.21,WUHU21623XXSP,2013-05-24 13:21:00,
2013-05-24 15:26:00,48.0,43.7,29.78,NNE,22,2.0,5.4,85,0.00,,,0.21,WUHU21623XXSP,2013-05-24 13:26:00,
2013-05-24 15:31:00,47.8,43.2,29.78,NNE,22,0.0,4.0,84,0.00,,,0.21,WUHU21623XXSP,2013-05-24 13:31:00,
2013-05-24 15:36:00,47.3,42.7,29.78,NNE,22,4.9,8.3,84,0.00,,,0.21,WUHU21623XXSP,2013-05-24 13:36:00,
2013-05-24 15:41:00,47.1,42.5,29.78,NNE,22,3.4,8.3,84,0.00,,,0.21,WUHU21623XXSP,2013-05-24 13:41:00,
2013-05-24 15:46:00,46.6,42.0,29.78,NNE,22,6.9,10.5,84,0.00,,,0.21,WUHU21623XXSP,2013-05-24 13:46:00,
2013-05-24 15:51:00,45.1,40.9,29.78,NNE,22,3.8,10.5,85,0.04,,,0.25,WUHU21623XXSP,2013-05-24 13:51:00,
2013-05-24 15:56:00,45.0,40.7,29.79,NNE,22,2.5,8.7,85,0.06,,,0.27,WUHU21623XXSP,2013-05-24 13:56:00,
2013-05-24 16:01:00,45.0,40.7,29.78,NNE,22,2.0,8.1,85,0.06,,,0.27,WUHU21623XXSP,2013-05-24 14:01:00,
2013-05-24 16:06:00,45.1,41.2,29.78,NNE,22,0.0,4.7,86,0.06,,,0.27,WUHU21623XXSP,2013-05-24 14:06:00,
2013-05-24 16:11:00,45.5,41.7,29.78,NNE,22,1.6,4.5,87,0.06,,,0.27,WUHU21623XXSP,2013-05-24 14:11:00,
2013-05-24 16:16:00,45.7,42.1,29.78,NNE,22,2.0,4.5,87,0.06,,,0.27,WUHU21623XXSP,2013-05-24 14:16:00,
2013-05-24 16:21:00,46.0,42.4,29.78,NNE,22,2.2,4.9,87,0.06,,,0.27,WUHU21623XXSP,2013-05-24 14:21:00,
2013-05-24 16:26:00,46.2,42.6,29.78,South,180,3.1,4.9,87,0.06,,,0.27,WUHU21623XXSP,2013-05-24 14:26:00,
2013-05-24 16:31:00,46.2,42.6,29.78,South,180,0.0,3.8,87,0.06,,,0.27,WUHU21623XXSP,2013-05-24 14:31:00,
2013-05-24 16:36:00,46.2,42.6,29.78,South,180,6.0,6.7,87,0.08,,,0.29,WUHU21623XXSP,2013-05-24 14:36:00,
2013-05-24 16:41:00,45.3,41.7,29.78,NNE,22,11.6,11.6,87,0.08,,,0.29,WUHU21623XXSP,2013-05-24 14:41:00,
2013-05-24 16:46:00,44.4,40.8,29.78,NNE,22,5.4,11.6,87,0.06,,,0.29,WUHU21623XXSP,2013-05-24 14:46:00,
2013-05-24 16:51:00,43.9,40.3,29.78,NNE,22,1.6,9.4,87,0.08,,,0.33,WUHU21623XXSP,2013-05-24 14:51:00,
2013-05-24 16:56:00,43.9,40.6,29.79,NNE,22,4.3,6.5,88,0.08,,,0.35,WUHU21623XXSP,2013-05-24 14:56:00,
2013-05-24 17:01:00,44.1,40.7,29.78,NNE,22,0.0,4.3,88,0.10,,,0.35,WUHU21623XXSP,2013-05-24 15:01:00,
2013-05-24 17:06:00,43.9,40.6,29.78,NNE,22,2.0,4.3,88,0.12,,,0.37,WUHU21623XXSP,2013-05-24 15:06:00,
2013-05-24 17:11:00,43.9,40.9,29.78,NNE,22,0.0,4.7,89,0.12,,,0.39,WUHU21623XXSP,2013-05-24 15:11:00,
2013-05-24 17:15:00,44.2,41.2,29.78,NNE,22,1.6,4.7,89,0.12,,,0.39,WUHU21623XXSP,2013-05-24 15:15:00,
2013-05-24 17:20:00,44.4,41.4,29.78,NNE,22,0.9,2.7,89,0.12,,,0.39,WUHU21623XXSP,2013-05-24 15:20:00,
2013-05-24 17:25:00,45.0,42.0,29.77,NNE,22,4.5,4.5,89,0.12,,,0.39,WUHU21623XXSP,2013-05-24 15:25:00,
2013-05-24 17:30:00,45.0,42.0,29.77,NNE,22,2.9,4.5,89,0.12,,,0.39,WUHU21623XXSP,2013-05-24 15:30:00,
2013-05-24 17:35:00,45.0,42.0,29.78,NNE,22,1.1,3.6,89,0.10,,,0.39,WUHU21623XXSP,2013-05-24 15:35:00,
2013-05-24 17:40:00,45.0,42.0,29.77,NNE,22,0.0,1.8,89,0.12,,,0.39,WUHU21623XXSP,2013-05-24 15:40:00,
2013-05-24 17:45:00,45.0,42.3,29.77,NNE,22,0.9,2.0,90,0.08,,,0.41,WUHU21623XXSP,2013-05-24 15:45:00,
2013-05-24 17:50:00,45.1,42.4,29.77,NNE,22,0.0,2.0,90,0.08,,,0.41,WUHU21623XXSP,2013-05-24 15:50:00,
2013-05-24 17:55:00,45.0,42.3,29.77,NNE,22,0.0,2.0,90,0.08,,,0.43,WUHU21623XXSP,2013-05-24 15:55:00,
2013-05-24 18:00:00,45.1,42.4,29.77,NNE,22,3.4,3.4,90,0.06,,,0.43,WUHU21623XXSP,2013-05-24 16:00:00,
2013-05-24 18:05:00,45.1,42.4,29.77,NNE,22,1.6,3.4,90,0.04,,,0.43,WUHU21623XXSP,2013-05-24 16:05:00,
2013-05-24 18:10:00,45.3,42.6,29.77,NNE,22,0.0,2.7,90,0.04,,,0.43,WUHU21623XXSP,2013-05-24 16:10:00,
2013-05-24 18:15:00,46.2,43.5,29.77,NNE,22,0.0,4.5,90,0.04,,,0.43,WUHU21623XXSP,2013-05-24 16:15:00,
2013-05-24 18:20:00,46.6,43.9,29.77,NNE,22,0.0,4.5,90,0.04,,,0.43,WUHU21623XXSP,2013-05-24 16:20:00,
2013-05-24 18:25:00,46.6,43.9,29.77,NNE,22,2.7,3.6,90,0.04,,,0.43,WUHU21623XXSP,2013-05-24 16:25:00,
2013-05-24 18:30:00,46.2,43.5,29.77,NNE,22,0.0,5.8,90,0.04,,,0.43,WUHU21623XXSP,2013-05-24 16:30:00,
2013-05-24 18:35:00,46.0,43.3,29.77,NNE,22,2.5,5.8,90,0.04,,,0.43,WUHU21623XXSP,2013-05-24 16:35:00,
2013-05-24 18:40:00,45.3,42.6,29.76,NNE,22,1.1,2.5,90,0.02,,,0.43,WUHU21623XXSP,2013-05-24 16:40:00,
2013-05-24 18:45:00,45.5,42.8,29.76,NNE,22,2.7,2.7,90,0.02,,,0.43,WUHU21623XXSP,2013-05-24 16:45:00,
2013-05-24 18:50:00,45.3,42.6,29.76,NNE,22,2.7,2.9,90,0.00,,,0.43,WUHU21623XXSP,2013-05-24 16:50:00,
2013-05-24 18:55:00,45.7,43.0,29.76,NNE,22,1.3,2.9,90,0.00,,,0.43,WUHU21623XXSP,2013-05-24 16:55:00,
2013-05-24 19:00:00,45.7,43.0,29.76,NNE,22,0.0,2.9,90,0.00,,,0.43,WUHU21623XXSP,2013-05-24 17:00:00,
2013-05-24 19:05:00,45.7,43.0,29.76,NNE,22,1.1,1.6,90,0.00,,,0.43,WUHU21623XXSP,2013-05-24 17:05:00,
2013-05-24 19:10:00,45.7,43.0,29.76,NNE,22,0.0,2.0,90,0.00,,,0.43,WUHU21623XXSP,2013-05-24 17:10:00,
2013-05-24 19:15:00,45.7,43.0,29.76,NNE,22,1.8,2.0,90,0.00,,,0.43,WUHU21623XXSP,2013-05-24 17:15:00,
2013-05-24 19:20:00,46.0,43.3,29.76,NNE,22,1.8,3.6,90,0.00,,,0.43,WUHU21623XXSP,2013-05-24 17:20:00,
2013-05-24 19:25:00,46.2,43.5,29.76,NNE,22,0.0,3.6,90,0.00,,,0.43,WUHU21623XXSP,2013-05-24 17:25:00,
2013-05-24 19:30:00,46.2,43.5,29.76,NNE,22,5.1,5.1,90,0.00,,,0.43,WUHU21623XXSP,2013-05-24 17:30:00,
2013-05-24 19:35:00,46.2,43.5,29.76,NNE,22,4.5,5.1,90,0.00,,,0.43,WUHU21623XXSP,2013-05-24 17:35:00,
2013-05-24 19:40:00,46.0,43.0,29.76,NNE,22,2.9,4.5,89,0.00,,,0.43,WUHU21623XXSP,2013-05-24 17:40:00,
2013-05-24 19:45:00,45.7,42.7,29.76,NNE,22,3.1,4.5,89,0.00,,,0.43,WUHU21623XXSP,2013-05-24 17:45:00,
2013-05-24 19:50:00,46.0,43.0,29.76,NNE,22,0.0,4.5,89,0.00,,,0.43,WUHU21623XXSP,2013-05-24 17:50:00,
2013-05-24 19:55:00,46.2,43.5,29.76,NNE,22,0.0,3.8,90,0.00,,,0.43,WUHU21623XXSP,2013-05-24 17:55:00,
2013-05-24 20:00:00,46.0,43.0,29.76,NNE,22,3.4,3.4,89,0.00,,,0.43,WUHU21623XXSP,2013-05-24 18:00:00,
2013-05-24 20:05:00,45.7,42.7,29.76,NNE,22,0.0,3.6,89,0.00,,,0.43,WUHU21623XXSP,2013-05-24 18:05:00,
2013-05-24 20:10:00,45.7,43.0,29.76,NNE,22,1.3,3.6,90,0.00,,,0.43,WUHU21623XXSP,2013-05-24 18:10:00,
2013-05-24 20:15:00,45.7,43.0,29.76,NNE,22,0.0,3.1,90,0.00,,,0.43,WUHU21623XXSP,2013-05-24 18:15:00,
2013-05-24 20:20:00,46.0,43.3,29.76,NNE,22,0.0,3.6,90,0.00,,,0.43,WUHU21623XXSP,2013-05-24 18:20:00,
2013-05-24 20:25:00,46.0,43.0,29.77,NNE,22,3.1,3.8,89,0.00,,,0.43,WUHU21623XXSP,2013-05-24 18:25:00,
2013-05-24 20:30:00,45.7,42.7,29.77,NNE,22,2.2,3.8,89,0.00,,,0.43,WUHU21623XXSP,2013-05-24 18:30:00,
2013-05-24 20:35:00,45.5,42.7,29.76,NNE,22,0.0,3.1,89,0.00,,,0.43,WUHU21623XXSP,2013-05-24 18:35:00,
2013-05-24 20:40:00,45.5,42.5,29.77,NNE,22,1.1,3.1,90,0.00,,,0.43,WUHU21623XXSP,2013-05-24 18:40:00,
2013-05-24 20:45:00,45.3,42.6,29.76,NNE,22,0.0,1.6,90,0.00,,,0.43,WUHU21623XXSP,2013-05-24 18:45:00,
2013-05-24 20:50:00,45.1,42.4,29.77,NNE,22,3.1,3.1,90,0.00,,,0.43,WUHU21623XXSP,2013-05-24 18:50:00,
2013-05-24 20:55:00,45.0,42.3,29.77,NNE,22,0.9,3.1,90,0.00,,,0.43,WUHU21623XXSP,2013-05-24 18:55:00,
2013-05-24 21:00:00,44.8,42.1,29.77,NNE,22,0.0,2.5,90,0.00,,,0.43,WUHU21623XXSP,2013-05-24 19:00:00,
2013-05-24 21:05:00,44.8,42.1,29.77,NNE,22,0.0,1.1,90,0.00,,,0.43,WUHU21623XXSP,2013-05-24 19:05:00,
2013-05-24 21:10:00,44.8,42.1,29.77,NNE,22,0.0,1.1,90,0.00,,,0.43,WUHU21623XXSP,2013-05-24 19:10:00,
2013-05-24 21:15:00,44.8,42.1,29.77,NNE,22,0.0,2.5,90,0.00,,,0.43,WUHU21623XXSP,2013-05-24 19:15:00,
2013-05-24 21:20:00,44.8,42.1,29.77,NNE,22,0.0,2.5,90,0.00,,,0.43,WUHU21623XXSP,2013-05-24 19:20:00,
2013-05-24 21:25:00,45.0,42.3,29.77,NNE,22,0.0,0.9,90,0.00,,,0.43,WUHU21623XXSP,2013-05-24 19:25:00,
2013-05-24 21:30:00,45.0,42.3,29.78,NNE,22,0.0,3.6,90,0.00,,,0.43,WUHU21623XXSP,2013-05-24 19:30:00,
2013-05-24 21:35:00,44.8,42.1,29.78,NNE,22,3.1,3.6,90,0.00,,,0.43,WUHU21623XXSP,2013-05-24 19:35:00,
2013-05-24 21:40:00,44.4,41.7,29.78,NNE,22,3.8,4.3,90,0.00,,,0.43,WUHU21623XXSP,2013-05-24 19:40:00,
2013-05-24 21:45:00,44.2,41.5,29.78,NNE,22,1.1,4.3,90,0.02,,,0.45,WUHU21623XXSP,2013-05-24 19:45:00,
2013-05-24 21:50:00,44.1,41.4,29.77,NNE,22,0.0,2.0,90,0.02,,,0.45,WUHU21623XXSP,2013-05-24 19:50:00,
2013-05-24 21:55:00,43.9,41.2,29.77,NNE,22,0.0,0.0,90,0.02,,,0.45,WUHU21623XXSP,2013-05-24 19:55:00,
2013-05-24 22:00:00,43.9,41.2,29.78,NNE,22,0.0,3.1,90,0.02,,,0.45,WUHU21623XXSP,2013-05-24 20:00:00,
2013-05-24 22:05:00,43.7,41.0,29.78,NNE,22,0.0,3.1,90,0.02,,,0.45,WUHU21623XXSP,2013-05-24 20:05:00,
2013-05-24 22:10:00,43.7,41.0,29.78,NNE,22,0.0,1.8,90,0.02,,,0.45,WUHU21623XXSP,2013-05-24 20:10:00,
2013-05-24 22:15:00,43.5,41.0,29.78,NNE,22,2.7,2.7,90,0.02,,,0.45,WUHU21623XXSP,2013-05-24 20:15:00,
2013-05-24 22:20:00,43.5,40.8,29.78,NNE,22,0.0,2.7,90,0.02,,,0.45,WUHU21623XXSP,2013-05-24 20:20:00,
2013-05-24 22:25:00,43.9,41.2,29.78,NNE,22,0.0,1.8,90,0.02,,,0.45,WUHU21623XXSP,2013-05-24 20:25:00,
2013-05-24 22:30:00,43.9,41.2,29.78,NNE,22,0.0,1.8,90,0.02,,,0.45,WUHU21623XXSP,2013-05-24 20:30:00,
2013-05-24 22:35:00,43.9,41.2,29.78,NNE,22,0.0,3.1,90,0.02,,,0.45,WUHU21623XXSP,2013-05-24 20:35:00,
2013-05-24 22:40:00,43.9,41.2,29.78,NNE,22,2.5,3.1,90,0.00,,,0.45,WUHU21623XXSP,2013-05-24 20:40:00,
2013-05-24 22:45:00,43.9,41.2,29.78,NNE,22,1.1,2.5,90,0.00,,,0.45,WUHU21623XXSP,2013-05-24 20:45:00,
2013-05-24 22:50:00,43.9,41.4,29.79,NNE,22,0.0,2.5,90,0.00,,,0.45,WUHU21623XXSP,2013-05-24 20:50:00,
2013-05-24 22:55:00,43.9,41.2,29.79,NNE,22,0.0,2.5,90,0.00,,,0.45,WUHU21623XXSP,2013-05-24 20:55:00,
2013-05-24 23:00:00,43.9,41.2,29.79,NNE,22,0.0,0.0,90,0.00,,,0.45,WUHU21623XXSP,2013-05-24 21:00:00,
2013-05-24 23:05:00,43.9,41.2,29.79,NNE,22,0.0,0.0,90,0.00,,,0.45,WUHU21623XXSP,2013-05-24 21:05:00,
2013-05-24 23:10:00,43.7,41.0,29.80,NNE,22,0.0,0.0,90,0.00,,,0.45,WUHU21623XXSP,2013-05-24 21:10:00,
2013-05-24 23:15:00,43.7,41.0,29.80,NNE,22,0.0,0.0,90,0.00,,,0.45,WUHU21623XXSP,2013-05-24 21:15:00,
2013-05-24 23:20:00,43.7,41.0,29.80,NNE,22,0.0,0.0,90,0.00,,,0.45,WUHU21623XXSP,2013-05-24 21:20:00,
2013-05-24 23:25:00,43.7,41.0,29.80,NNE,22,0.0,1.3,90,0.00,,,0.45,WUHU21623XXSP,2013-05-24 21:25:00,
2013-05-24 23:30:00,43.9,41.2,29.80,NNE,22,0.0,1.3,90,0.00,,,0.45,WUHU21623XXSP,2013-05-24 21:30:00,
2013-05-24 23:35:00,43.9,41.2,29.80,NNE,22,0.0,0.0,90,0.00,,,0.45,WUHU21623XXSP,2013-05-24 21:35:00,
2013-05-24 23:40:00,44.2,41.5,29.80,NNE,22,0.0,0.0,90,0.00,,,0.45,WUHU21623XXSP,2013-05-24 21:40:00,
2013-05-24 23:45:00,44.2,41.8,29.80,NNE,22,0.7,0.7,91,0.00,,,0.45,WUHU21623XXSP,2013-05-24 21:45:00,
2013-05-24 23:50:00,44.4,42.0,29.80,NNE,22,0.0,0.7,91,0.00,,,0.45,WUHU21623XXSP,2013-05-24 21:50:00,
2013-05-24 23:55:00,44.4,42.0,29.80,NNE,22,0.0,0.0,91,0.00,,,0.45,WUHU21623XXSP,2013-05-24 21:55:00,